sensor_id;sensor_type;location;lat;lon;timestamp;P1;durP1;ratioP1;P2;durP2;ratioP2
53801;SDS011;39709;53.334;6.534;2022-12-29T00:02:01;3.40;;;0.97;;
53801;SDS011;39709;53.334;6.534;2022-12-29T00:04:27;1.80;;;0.40;;
53801;SDS011;39709;53.334;6.534;2022-12-29T00:06:53;3.05;;;0.65;;
53801;SDS011;39709;53.334;6.534;2022-12-29T00:09:19;1.97;;;0.40;;
53801;SDS011;39709;53.334;6.534;2022-12-29T00:11:45;2.55;;;0.50;;
53801;SDS011;39709;53.334;6.534;2022-12-29T00:14:11;1.83;;;0.40;;
53801;SDS011;39709;53.334;6.534;2022-12-29T00:16:56;4.30;;;0.88;;
53801;SDS011;39709;53.334;6.534;2022-12-29T00:19:22;2.80;;;0.80;;
53801;SDS011;39709;53.334;6.534;2022-12-29T00:22:10;2.13;;;0.47;;
53801;SDS011;39709;53.334;6.534;2022-12-29T00:24:56;2.80;;;0.55;;
53801;SDS011;39709;53.334;6.534;2022-12-29T00:27:25;3.72;;;0.68;;
53801;SDS011;39709;53.334;6.534;2022-12-29T00:30:15;2.72;;;0.50;;
53801;SDS011;39709;53.334;6.534;2022-12-29T00:33:10;2.47;;;0.40;;
53801;SDS011;39709;53.334;6.534;2022-12-29T00:36:00;3.42;;;0.45;;
53801;SDS011;39709;53.334;6.534;2022-12-29T00:38:35;1.50;;;0.40;;
53801;SDS011;39709;53.334;6.534;2022-12-29T00:41:21;2.28;;;0.52;;
53801;SDS011;39709;53.334;6.534;2022-12-29T00:44:06;2.08;;;0.50;;
53801;SDS011;39709;53.334;6.534;2022-12-29T00:46:38;2.67;;;0.57;;
53801;SDS011;39709;53.334;6.534;2022-12-29T00:49:06;2.78;;;0.80;;
53801;SDS011;39709;53.334;6.534;2022-12-29T00:51:52;2.88;;;0.95;;
53801;SDS011;39709;53.334;6.534;2022-12-29T00:54:18;1.95;;;0.40;;
53801;SDS011;39709;53.334;6.534;2022-12-29T00:56:48;1.67;;;0.45;;
53801;SDS011;39709;53.334;6.534;2022-12-29T00:59:14;2.83;;;0.60;;
53801;SDS011;39709;53.334;6.534;2022-12-29T01:01:40;1.73;;;0.50;;
53801;SDS011;39709;53.334;6.534;2022-12-29T01:04:06;2.08;;;0.45;;
53801;SDS011;39709;53.334;6.534;2022-12-29T01:06:33;2.00;;;0.50;;
53801;SDS011;39709;53.334;6.534;2022-12-29T01:09:00;1.48;;;0.40;;
53801;SDS011;39709;53.334;6.534;2022-12-29T01:11:44;2.13;;;0.40;;
53801;SDS011;39709;53.334;6.534;2022-12-29T01:14:09;3.50;;;0.63;;
53801;SDS011;39709;53.334;6.534;2022-12-29T01:16:35;1.10;;;0.30;;
53801;SDS011;39709;53.334;6.534;2022-12-29T01:19:01;3.05;;;0.50;;
53801;SDS011;39709;53.334;6.534;2022-12-29T01:21:27;2.80;;;1.03;;
53801;SDS011;39709;53.334;6.534;2022-12-29T01:23:53;3.72;;;0.93;;
53801;SDS011;39709;53.334;6.534;2022-12-29T01:26:19;1.65;;;0.40;;
53801;SDS011;39709;53.334;6.534;2022-12-29T01:28:44;3.50;;;0.83;;
53801;SDS011;39709;53.334;6.534;2022-12-29T01:31:11;2.30;;;0.80;;
53801;SDS011;39709;53.334;6.534;2022-12-29T01:33:38;2.70;;;0.73;;
53801;SDS011;39709;53.334;6.534;2022-12-29T01:36:05;2.47;;;0.60;;
53801;SDS011;39709;53.334;6.534;2022-12-29T01:38:33;3.10;;;1.15;;
53801;SDS011;39709;53.334;6.534;2022-12-29T01:41:00;1.95;;;0.50;;
53801;SDS011;39709;53.334;6.534;2022-12-29T01:46:04;2.53;;;0.93;;
53801;SDS011;39709;53.334;6.534;2022-12-29T01:48:38;3.20;;;1.17;;
53801;SDS011;39709;53.334;6.534;2022-12-29T01:51:04;2.80;;;0.75;;
53801;SDS011;39709;53.334;6.534;2022-12-29T01:53:30;1.50;;;0.30;;
53801;SDS011;39709;53.334;6.534;2022-12-29T01:55:59;1.67;;;0.30;;
53801;SDS011;39709;53.334;6.534;2022-12-29T01:58:29;2.65;;;0.57;;
53801;SDS011;39709;53.334;6.534;2022-12-29T02:00:58;2.38;;;0.80;;
53801;SDS011;39709;53.334;6.534;2022-12-29T02:03:25;2.93;;;0.50;;
53801;SDS011;39709;53.334;6.534;2022-12-29T02:06:07;3.40;;;0.80;;
53801;SDS011;39709;53.334;6.534;2022-12-29T02:08:37;3.10;;;0.63;;
53801;SDS011;39709;53.334;6.534;2022-12-29T02:11:04;1.73;;;0.32;;
53801;SDS011;39709;53.334;6.534;2022-12-29T02:13:30;2.17;;;0.63;;
53801;SDS011;39709;53.334;6.534;2022-12-29T02:29:38;3.50;;;1.00;;
53801;SDS011;39709;53.334;6.534;2022-12-29T02:32:37;2.13;;;0.60;;
53801;SDS011;39709;53.334;6.534;2022-12-29T02:35:32;2.08;;;0.50;;
53801;SDS011;39709;53.334;6.534;2022-12-29T02:38:25;2.15;;;0.50;;
53801;SDS011;39709;53.334;6.534;2022-12-29T02:41:08;2.95;;;0.82;;
53801;SDS011;39709;53.334;6.534;2022-12-29T02:43:39;3.07;;;0.80;;
53801;SDS011;39709;53.334;6.534;2022-12-29T02:47:14;1.73;;;0.35;;
53801;SDS011;39709;53.334;6.534;2022-12-29T02:49:25;3.38;;;0.80;;
53801;SDS011;39709;53.334;6.534;2022-12-29T02:52:03;5.28;;;0.85;;
53801;SDS011;39709;53.334;6.534;2022-12-29T02:54:32;2.80;;;0.70;;
53801;SDS011;39709;53.334;6.534;2022-12-29T02:57:11;4.73;;;1.60;;
53801;SDS011;39709;53.334;6.534;2022-12-29T02:59:53;1.13;;;0.30;;
53801;SDS011;39709;53.334;6.534;2022-12-29T03:05:07;3.10;;;0.47;;
53801;SDS011;39709;53.334;6.534;2022-12-29T03:19:23;1.55;;;0.35;;
53801;SDS011;39709;53.334;6.534;2022-12-29T03:22:06;1.92;;;0.50;;
53801;SDS011;39709;53.334;6.534;2022-12-29T03:25:15;2.87;;;0.50;;
53801;SDS011;39709;53.334;6.534;2022-12-29T03:27:47;3.28;;;0.40;;
53801;SDS011;39709;53.334;6.534;2022-12-29T03:30:21;3.00;;;0.43;;
53801;SDS011;39709;53.334;6.534;2022-12-29T03:32:52;1.38;;;0.30;;
53801;SDS011;39709;53.334;6.534;2022-12-29T03:35:28;2.08;;;0.57;;
53801;SDS011;39709;53.334;6.534;2022-12-29T03:40:25;4.30;;;0.70;;
53801;SDS011;39709;53.334;6.534;2022-12-29T03:42:52;1.80;;;0.40;;
53801;SDS011;39709;53.334;6.534;2022-12-29T03:45:19;2.80;;;0.50;;
53801;SDS011;39709;53.334;6.534;2022-12-29T03:47:45;2.73;;;0.60;;
53801;SDS011;39709;53.334;6.534;2022-12-29T03:50:13;2.05;;;0.40;;
53801;SDS011;39709;53.334;6.534;2022-12-29T03:52:39;1.58;;;0.40;;
53801;SDS011;39709;53.334;6.534;2022-12-29T03:55:05;1.50;;;0.30;;
53801;SDS011;39709;53.334;6.534;2022-12-29T03:57:31;2.25;;;0.40;;
53801;SDS011;39709;53.334;6.534;2022-12-29T03:59:56;2.23;;;0.40;;
53801;SDS011;39709;53.334;6.534;2022-12-29T04:02:22;3.60;;;0.50;;
53801;SDS011;39709;53.334;6.534;2022-12-29T04:04:49;1.42;;;0.30;;
53801;SDS011;39709;53.334;6.534;2022-12-29T04:07:14;1.23;;;0.30;;
53801;SDS011;39709;53.334;6.534;2022-12-29T04:09:40;1.93;;;0.33;;
53801;SDS011;39709;53.334;6.534;2022-12-29T04:12:06;2.25;;;0.43;;
53801;SDS011;39709;53.334;6.534;2022-12-29T04:14:31;2.70;;;0.47;;
53801;SDS011;39709;53.334;6.534;2022-12-29T04:16:57;2.83;;;0.50;;
53801;SDS011;39709;53.334;6.534;2022-12-29T04:19:23;1.75;;;0.40;;
53801;SDS011;39709;53.334;6.534;2022-12-29T04:21:48;1.63;;;0.40;;
53801;SDS011;39709;53.334;6.534;2022-12-29T04:24:14;2.35;;;0.40;;
53801;SDS011;39709;53.334;6.534;2022-12-29T04:26:40;2.07;;;0.40;;
53801;SDS011;39709;53.334;6.534;2022-12-29T04:29:06;2.63;;;0.50;;
53801;SDS011;39709;53.334;6.534;2022-12-29T04:31:32;2.60;;;0.32;;
53801;SDS011;39709;53.334;6.534;2022-12-29T04:33:58;3.03;;;0.60;;
53801;SDS011;39709;53.334;6.534;2022-12-29T04:36:25;2.60;;;0.40;;
53801;SDS011;39709;53.334;6.534;2022-12-29T04:38:51;2.33;;;0.50;;
53801;SDS011;39709;53.334;6.534;2022-12-29T04:41:16;2.97;;;0.50;;
53801;SDS011;39709;53.334;6.534;2022-12-29T04:43:42;1.70;;;0.40;;
53801;SDS011;39709;53.334;6.534;2022-12-29T04:46:08;1.53;;;0.30;;
53801;SDS011;39709;53.334;6.534;2022-12-29T04:48:33;2.72;;;0.47;;
53801;SDS011;39709;53.334;6.534;2022-12-29T04:50:59;2.00;;;0.40;;
53801;SDS011;39709;53.334;6.534;2022-12-29T04:53:25;4.07;;;0.60;;
53801;SDS011;39709;53.334;6.534;2022-12-29T04:55:51;2.30;;;0.32;;
53801;SDS011;39709;53.334;6.534;2022-12-29T04:58:18;4.10;;;0.50;;
53801;SDS011;39709;53.334;6.534;2022-12-29T05:00:44;2.08;;;0.50;;
53801;SDS011;39709;53.334;6.534;2022-12-29T05:03:10;2.50;;;0.50;;
53801;SDS011;39709;53.334;6.534;2022-12-29T05:05:36;1.63;;;0.30;;
53801;SDS011;39709;53.334;6.534;2022-12-29T05:08:02;3.85;;;0.40;;
53801;SDS011;39709;53.334;6.534;2022-12-29T05:10:28;2.05;;;0.40;;
53801;SDS011;39709;53.334;6.534;2022-12-29T05:12:54;2.13;;;0.30;;
53801;SDS011;39709;53.334;6.534;2022-12-29T05:15:19;4.13;;;0.47;;
53801;SDS011;39709;53.334;6.534;2022-12-29T05:17:45;3.03;;;0.57;;
53801;SDS011;39709;53.334;6.534;2022-12-29T05:20:11;3.40;;;0.40;;
53801;SDS011;39709;53.334;6.534;2022-12-29T05:22:36;3.77;;;0.40;;
53801;SDS011;39709;53.334;6.534;2022-12-29T05:25:02;2.65;;;0.30;;
53801;SDS011;39709;53.334;6.534;2022-12-29T05:27:28;1.23;;;0.30;;
53801;SDS011;39709;53.334;6.534;2022-12-29T05:29:54;2.05;;;0.40;;
53801;SDS011;39709;53.334;6.534;2022-12-29T05:32:19;3.60;;;0.40;;
53801;SDS011;39709;53.334;6.534;2022-12-29T05:34:45;3.30;;;0.43;;
53801;SDS011;39709;53.334;6.534;2022-12-29T05:37:11;2.80;;;0.40;;
53801;SDS011;39709;53.334;6.534;2022-12-29T05:39:37;1.80;;;0.28;;
53801;SDS011;39709;53.334;6.534;2022-12-29T05:42:03;2.58;;;0.50;;
53801;SDS011;39709;53.334;6.534;2022-12-29T05:44:28;5.03;;;0.70;;
53801;SDS011;39709;53.334;6.534;2022-12-29T05:46:54;2.53;;;0.40;;
53801;SDS011;39709;53.334;6.534;2022-12-29T05:49:20;3.27;;;0.60;;
53801;SDS011;39709;53.334;6.534;2022-12-29T05:51:45;4.73;;;0.47;;
53801;SDS011;39709;53.334;6.534;2022-12-29T05:54:11;3.63;;;0.50;;
53801;SDS011;39709;53.334;6.534;2022-12-29T05:56:37;4.10;;;0.50;;
53801;SDS011;39709;53.334;6.534;2022-12-29T05:59:02;4.05;;;0.80;;
53801;SDS011;39709;53.334;6.534;2022-12-29T06:01:28;6.03;;;0.73;;
53801;SDS011;39709;53.334;6.534;2022-12-29T06:03:53;2.38;;;0.40;;
53801;SDS011;39709;53.334;6.534;2022-12-29T06:06:19;3.63;;;0.57;;
53801;SDS011;39709;53.334;6.534;2022-12-29T06:08:45;3.33;;;0.40;;
53801;SDS011;39709;53.334;6.534;2022-12-29T06:11:11;5.90;;;0.60;;
53801;SDS011;39709;53.334;6.534;2022-12-29T06:13:37;6.40;;;0.95;;
53801;SDS011;39709;53.334;6.534;2022-12-29T06:16:03;4.95;;;0.55;;
53801;SDS011;39709;53.334;6.534;2022-12-29T06:18:29;3.00;;;0.57;;
53801;SDS011;39709;53.334;6.534;2022-12-29T06:20:59;5.25;;;0.63;;
53801;SDS011;39709;53.334;6.534;2022-12-29T06:23:25;9.30;;;0.90;;
53801;SDS011;39709;53.334;6.534;2022-12-29T06:25:51;2.77;;;0.40;;
53801;SDS011;39709;53.334;6.534;2022-12-29T06:28:17;5.15;;;0.45;;
53801;SDS011;39709;53.334;6.534;2022-12-29T06:30:46;4.53;;;0.63;;
53801;SDS011;39709;53.334;6.534;2022-12-29T06:33:13;5.70;;;1.00;;
53801;SDS011;39709;53.334;6.534;2022-12-29T06:35:39;2.42;;;0.35;;
53801;SDS011;39709;53.334;6.534;2022-12-29T06:38:05;3.70;;;0.50;;
53801;SDS011;39709;53.334;6.534;2022-12-29T06:40:31;5.27;;;0.50;;
53801;SDS011;39709;53.334;6.534;2022-12-29T06:42:57;2.28;;;0.40;;
53801;SDS011;39709;53.334;6.534;2022-12-29T06:45:23;3.60;;;0.50;;
53801;SDS011;39709;53.334;6.534;2022-12-29T06:47:49;4.35;;;0.70;;
53801;SDS011;39709;53.334;6.534;2022-12-29T06:50:20;6.93;;;0.68;;
53801;SDS011;39709;53.334;6.534;2022-12-29T06:52:46;2.97;;;0.47;;
53801;SDS011;39709;53.334;6.534;2022-12-29T06:55:12;7.53;;;1.40;;
53801;SDS011;39709;53.334;6.534;2022-12-29T06:57:37;2.83;;;0.73;;
53801;SDS011;39709;53.334;6.534;2022-12-29T07:00:03;7.10;;;1.02;;
53801;SDS011;39709;53.334;6.534;2022-12-29T07:02:30;3.92;;;0.57;;
53801;SDS011;39709;53.334;6.534;2022-12-29T07:04:55;5.97;;;0.70;;
53801;SDS011;39709;53.334;6.534;2022-12-29T07:07:21;3.00;;;0.40;;
53801;SDS011;39709;53.334;6.534;2022-12-29T07:09:47;3.58;;;0.60;;
53801;SDS011;39709;53.334;6.534;2022-12-29T07:12:12;3.93;;;0.53;;
53801;SDS011;39709;53.334;6.534;2022-12-29T07:14:38;7.30;;;0.70;;
53801;SDS011;39709;53.334;6.534;2022-12-29T07:17:04;5.35;;;0.65;;
53801;SDS011;39709;53.334;6.534;2022-12-29T07:19:31;1.98;;;0.30;;
53801;SDS011;39709;53.334;6.534;2022-12-29T07:21:57;5.10;;;0.80;;
53801;SDS011;39709;53.334;6.534;2022-12-29T07:24:23;5.93;;;0.80;;
53801;SDS011;39709;53.334;6.534;2022-12-29T07:26:50;5.30;;;0.70;;
53801;SDS011;39709;53.334;6.534;2022-12-29T07:29:17;4.10;;;0.70;;
53801;SDS011;39709;53.334;6.534;2022-12-29T07:31:43;6.40;;;0.93;;
53801;SDS011;39709;53.334;6.534;2022-12-29T07:34:08;8.10;;;1.08;;
53801;SDS011;39709;53.334;6.534;2022-12-29T07:36:34;9.77;;;1.20;;
53801;SDS011;39709;53.334;6.534;2022-12-29T07:39:00;4.83;;;0.60;;
53801;SDS011;39709;53.334;6.534;2022-12-29T07:41:27;3.92;;;0.50;;
53801;SDS011;39709;53.334;6.534;2022-12-29T07:43:52;5.20;;;0.80;;
53801;SDS011;39709;53.334;6.534;2022-12-29T07:46:18;4.70;;;0.77;;
53801;SDS011;39709;53.334;6.534;2022-12-29T07:48:44;5.35;;;0.45;;
53801;SDS011;39709;53.334;6.534;2022-12-29T07:51:10;3.40;;;0.57;;
53801;SDS011;39709;53.334;6.534;2022-12-29T07:53:36;6.53;;;1.13;;
53801;SDS011;39709;53.334;6.534;2022-12-29T07:56:02;5.93;;;1.20;;
53801;SDS011;39709;53.334;6.534;2022-12-29T07:58:28;10.97;;;1.00;;
53801;SDS011;39709;53.334;6.534;2022-12-29T08:00:57;7.68;;;0.95;;
53801;SDS011;39709;53.334;6.534;2022-12-29T08:03:23;9.15;;;0.90;;
53801;SDS011;39709;53.334;6.534;2022-12-29T08:05:49;7.57;;;1.27;;
53801;SDS011;39709;53.334;6.534;2022-12-29T08:08:15;7.27;;;0.50;;
53801;SDS011;39709;53.334;6.534;2022-12-29T08:10:41;7.68;;;0.90;;
53801;SDS011;39709;53.334;6.534;2022-12-29T08:13:06;6.23;;;0.70;;
53801;SDS011;39709;53.334;6.534;2022-12-29T08:15:32;3.80;;;0.60;;
53801;SDS011;39709;53.334;6.534;2022-12-29T08:17:58;6.70;;;0.70;;
53801;SDS011;39709;53.334;6.534;2022-12-29T08:20:24;5.77;;;1.00;;
53801;SDS011;39709;53.334;6.534;2022-12-29T08:22:50;5.43;;;1.17;;
53801;SDS011;39709;53.334;6.534;2022-12-29T08:25:16;6.88;;;1.02;;
53801;SDS011;39709;53.334;6.534;2022-12-29T08:27:42;4.40;;;0.60;;
53801;SDS011;39709;53.334;6.534;2022-12-29T08:30:08;5.43;;;0.80;;
53801;SDS011;39709;53.334;6.534;2022-12-29T08:32:34;6.63;;;0.70;;
53801;SDS011;39709;53.334;6.534;2022-12-29T08:35:00;5.90;;;1.00;;
53801;SDS011;39709;53.334;6.534;2022-12-29T08:37:26;10.33;;;1.00;;
53801;SDS011;39709;53.334;6.534;2022-12-29T08:39:51;5.88;;;0.60;;
53801;SDS011;39709;53.334;6.534;2022-12-29T08:42:17;4.18;;;0.70;;
53801;SDS011;39709;53.334;6.534;2022-12-29T08:44:43;6.60;;;0.87;;
53801;SDS011;39709;53.334;6.534;2022-12-29T08:47:09;7.03;;;1.40;;
53801;SDS011;39709;53.334;6.534;2022-12-29T08:49:36;8.17;;;0.80;;
53801;SDS011;39709;53.334;6.534;2022-12-29T08:52:02;6.47;;;0.82;;
53801;SDS011;39709;53.334;6.534;2022-12-29T08:54:28;9.60;;;1.05;;
53801;SDS011;39709;53.334;6.534;2022-12-29T08:56:54;5.00;;;0.70;;
53801;SDS011;39709;53.334;6.534;2022-12-29T08:59:19;9.27;;;1.05;;
53801;SDS011;39709;53.334;6.534;2022-12-29T09:01:45;7.40;;;1.03;;
53801;SDS011;39709;53.334;6.534;2022-12-29T09:04:11;9.30;;;0.80;;
53801;SDS011;39709;53.334;6.534;2022-12-29T09:06:36;5.43;;;0.80;;
53801;SDS011;39709;53.334;6.534;2022-12-29T09:09:02;5.45;;;0.77;;
53801;SDS011;39709;53.334;6.534;2022-12-29T09:11:28;6.33;;;0.70;;
53801;SDS011;39709;53.334;6.534;2022-12-29T09:13:54;5.32;;;0.60;;
53801;SDS011;39709;53.334;6.534;2022-12-29T09:16:21;6.32;;;0.85;;
53801;SDS011;39709;53.334;6.534;2022-12-29T09:18:48;7.57;;;1.10;;
53801;SDS011;39709;53.334;6.534;2022-12-29T09:21:14;8.65;;;1.25;;
53801;SDS011;39709;53.334;6.534;2022-12-29T09:23:40;6.85;;;0.82;;
53801;SDS011;39709;53.334;6.534;2022-12-29T09:26:06;14.70;;;2.07;;
53801;SDS011;39709;53.334;6.534;2022-12-29T09:28:32;8.48;;;1.10;;
53801;SDS011;39709;53.334;6.534;2022-12-29T09:30:58;8.23;;;0.95;;
53801;SDS011;39709;53.334;6.534;2022-12-29T09:33:24;10.48;;;1.33;;
53801;SDS011;39709;53.334;6.534;2022-12-29T09:35:52;7.80;;;1.10;;
53801;SDS011;39709;53.334;6.534;2022-12-29T09:38:19;14.35;;;1.30;;
53801;SDS011;39709;53.334;6.534;2022-12-29T09:40:48;9.07;;;1.23;;
53801;SDS011;39709;53.334;6.534;2022-12-29T09:48:58;5.00;;;0.70;;
53801;SDS011;39709;53.334;6.534;2022-12-29T09:51:35;10.38;;;1.05;;
53801;SDS011;39709;53.334;6.534;2022-12-29T09:54:19;4.80;;;0.73;;
53801;SDS011;39709;53.334;6.534;2022-12-29T09:56:46;12.60;;;1.17;;
53801;SDS011;39709;53.334;6.534;2022-12-29T09:59:17;7.53;;;0.95;;
53801;SDS011;39709;53.334;6.534;2022-12-29T10:04:59;8.43;;;1.00;;
53801;SDS011;39709;53.334;6.534;2022-12-29T10:07:32;4.40;;;0.80;;
53801;SDS011;39709;53.334;6.534;2022-12-29T10:12:55;5.75;;;0.70;;
53801;SDS011;39709;53.334;6.534;2022-12-29T10:19:07;9.82;;;1.42;;
53801;SDS011;39709;53.334;6.534;2022-12-29T10:21:25;4.28;;;0.50;;
53801;SDS011;39709;53.334;6.534;2022-12-29T10:23:57;6.30;;;0.70;;
53801;SDS011;39709;53.334;6.534;2022-12-29T10:26:27;6.93;;;0.93;;
53801;SDS011;39709;53.334;6.534;2022-12-29T10:29:08;6.80;;;0.80;;
53801;SDS011;39709;53.334;6.534;2022-12-29T10:31:58;7.35;;;0.82;;
53801;SDS011;39709;53.334;6.534;2022-12-29T10:34:31;8.98;;;0.77;;
53801;SDS011;39709;53.334;6.534;2022-12-29T10:37:09;4.63;;;0.80;;
53801;SDS011;39709;53.334;6.534;2022-12-29T10:39:48;7.32;;;0.88;;
53801;SDS011;39709;53.334;6.534;2022-12-29T10:44:53;6.43;;;0.90;;
53801;SDS011;39709;53.334;6.534;2022-12-29T10:47:24;9.80;;;1.58;;
53801;SDS011;39709;53.334;6.534;2022-12-29T10:49:53;9.70;;;1.27;;
53801;SDS011;39709;53.334;6.534;2022-12-29T10:52:19;5.93;;;0.70;;
53801;SDS011;39709;53.334;6.534;2022-12-29T10:54:58;7.93;;;0.80;;
53801;SDS011;39709;53.334;6.534;2022-12-29T10:57:32;7.93;;;1.00;;
53801;SDS011;39709;53.334;6.534;2022-12-29T11:00:00;16.40;;;1.52;;
53801;SDS011;39709;53.334;6.534;2022-12-29T11:05:32;7.68;;;0.90;;
53801;SDS011;39709;53.334;6.534;2022-12-29T11:08:21;10.77;;;0.70;;
53801;SDS011;39709;53.334;6.534;2022-12-29T11:13:56;9.52;;;1.20;;
53801;SDS011;39709;53.334;6.534;2022-12-29T11:16:32;9.02;;;1.10;;
53801;SDS011;39709;53.334;6.534;2022-12-29T11:19:00;19.40;;;1.48;;
53801;SDS011;39709;53.334;6.534;2022-12-29T11:21:38;6.20;;;0.67;;
53801;SDS011;39709;53.334;6.534;2022-12-29T11:24:18;5.65;;;0.88;;
53801;SDS011;39709;53.334;6.534;2022-12-29T11:26:45;6.85;;;0.60;;
53801;SDS011;39709;53.334;6.534;2022-12-29T11:29:16;8.40;;;0.93;;
53801;SDS011;39709;53.334;6.534;2022-12-29T11:31:50;5.07;;;0.77;;
53801;SDS011;39709;53.334;6.534;2022-12-29T11:34:19;14.18;;;1.75;;
53801;SDS011;39709;53.334;6.534;2022-12-29T11:36:50;9.32;;;1.25;;
53801;SDS011;39709;53.334;6.534;2022-12-29T11:39:30;11.38;;;1.00;;
53801;SDS011;39709;53.334;6.534;2022-12-29T11:42:03;8.20;;;1.10;;
53801;SDS011;39709;53.334;6.534;2022-12-29T11:44:36;5.30;;;0.77;;
53801;SDS011;39709;53.334;6.534;2022-12-29T11:47:07;4.90;;;0.57;;
53801;SDS011;39709;53.334;6.534;2022-12-29T11:49:37;11.65;;;1.15;;
53801;SDS011;39709;53.334;6.534;2022-12-29T11:52:03;14.73;;;1.40;;
53801;SDS011;39709;53.334;6.534;2022-12-29T11:54:31;11.50;;;1.35;;
53801;SDS011;39709;53.334;6.534;2022-12-29T11:57:08;10.80;;;1.30;;
53801;SDS011;39709;53.334;6.534;2022-12-29T12:04:41;13.52;;;1.55;;
53801;SDS011;39709;53.334;6.534;2022-12-29T12:09:34;9.43;;;1.08;;
53801;SDS011;39709;53.334;6.534;2022-12-29T12:12:09;8.57;;;0.77;;
53801;SDS011;39709;53.334;6.534;2022-12-29T12:14:58;14.13;;;1.00;;
53801;SDS011;39709;53.334;6.534;2022-12-29T12:17:33;7.38;;;0.77;;
53801;SDS011;39709;53.334;6.534;2022-12-29T12:25:57;6.23;;;0.73;;
53801;SDS011;39709;53.334;6.534;2022-12-29T12:34:04;10.68;;;0.80;;
53801;SDS011;39709;53.334;6.534;2022-12-29T12:36:59;8.05;;;0.80;;
53801;SDS011;39709;53.334;6.534;2022-12-29T12:39:38;4.70;;;0.50;;
53801;SDS011;39709;53.334;6.534;2022-12-29T12:53:39;4.23;;;0.70;;
53801;SDS011;39709;53.334;6.534;2022-12-29T13:07:38;8.97;;;0.70;;
53801;SDS011;39709;53.334;6.534;2022-12-29T13:13:47;7.95;;;0.75;;
53801;SDS011;39709;53.334;6.534;2022-12-29T13:16:33;5.85;;;0.43;;
53801;SDS011;39709;53.334;6.534;2022-12-29T13:19:29;7.07;;;0.90;;
53801;SDS011;39709;53.334;6.534;2022-12-29T13:30:09;11.18;;;0.82;;
53801;SDS011;39709;53.334;6.534;2022-12-29T13:33:07;9.77;;;0.82;;
53801;SDS011;39709;53.334;6.534;2022-12-29T13:36:05;10.03;;;1.00;;
53801;SDS011;39709;53.334;6.534;2022-12-29T13:38:48;11.55;;;1.02;;
53801;SDS011;39709;53.334;6.534;2022-12-29T13:41:25;4.78;;;0.32;;
53801;SDS011;39709;53.334;6.534;2022-12-29T13:43:56;5.43;;;0.70;;
53801;SDS011;39709;53.334;6.534;2022-12-29T13:46:24;5.22;;;0.60;;
53801;SDS011;39709;53.334;6.534;2022-12-29T13:48:56;4.47;;;0.53;;
53801;SDS011;39709;53.334;6.534;2022-12-29T13:51:32;6.13;;;0.50;;
53801;SDS011;39709;53.334;6.534;2022-12-29T14:02:37;5.53;;;0.60;;
53801;SDS011;39709;53.334;6.534;2022-12-29T14:07:43;8.05;;;0.57;;
53801;SDS011;39709;53.334;6.534;2022-12-29T14:13:05;9.05;;;0.73;;
53801;SDS011;39709;53.334;6.534;2022-12-29T14:15:39;7.13;;;0.80;;
53801;SDS011;39709;53.334;6.534;2022-12-29T14:20:46;11.35;;;0.68;;
53801;SDS011;39709;53.334;6.534;2022-12-29T14:28:35;12.27;;;1.42;;
53801;SDS011;39709;53.334;6.534;2022-12-29T14:31:32;4.00;;;0.40;;
53801;SDS011;39709;53.334;6.534;2022-12-29T14:36:35;8.67;;;0.60;;
53801;SDS011;39709;53.334;6.534;2022-12-29T14:42:04;6.40;;;1.48;;
53801;SDS011;39709;53.334;6.534;2022-12-29T14:44:48;9.10;;;0.60;;
53801;SDS011;39709;53.334;6.534;2022-12-29T14:47:19;6.75;;;0.43;;
53801;SDS011;39709;53.334;6.534;2022-12-29T14:49:45;8.20;;;0.50;;
53801;SDS011;39709;53.334;6.534;2022-12-29T14:52:22;10.43;;;0.70;;
53801;SDS011;39709;53.334;6.534;2022-12-29T14:54:57;6.95;;;0.68;;
53801;SDS011;39709;53.334;6.534;2022-12-29T14:57:33;5.82;;;0.50;;
53801;SDS011;39709;53.334;6.534;2022-12-29T15:00:22;9.55;;;0.90;;
53801;SDS011;39709;53.334;6.534;2022-12-29T15:05:44;7.95;;;0.60;;
53801;SDS011;39709;53.334;6.534;2022-12-29T15:08:17;7.43;;;0.88;;
53801;SDS011;39709;53.334;6.534;2022-12-29T15:10:47;5.88;;;0.60;;
53801;SDS011;39709;53.334;6.534;2022-12-29T15:13:21;10.52;;;1.10;;
53801;SDS011;39709;53.334;6.534;2022-12-29T15:15:50;7.33;;;1.00;;
53801;SDS011;39709;53.334;6.534;2022-12-29T15:18:30;13.07;;;1.23;;
53801;SDS011;39709;53.334;6.534;2022-12-29T15:21:01;11.45;;;1.20;;
53801;SDS011;39709;53.334;6.534;2022-12-29T15:23:30;11.25;;;1.10;;
53801;SDS011;39709;53.334;6.534;2022-12-29T15:25:58;11.05;;;1.00;;
53801;SDS011;39709;53.334;6.534;2022-12-29T15:28:39;8.97;;;1.03;;
53801;SDS011;39709;53.334;6.534;2022-12-29T15:31:14;13.32;;;1.55;;
53801;SDS011;39709;53.334;6.534;2022-12-29T15:33:55;10.85;;;1.05;;
53801;SDS011;39709;53.334;6.534;2022-12-29T15:36:38;14.93;;;1.25;;
53801;SDS011;39709;53.334;6.534;2022-12-29T15:39:20;7.40;;;0.73;;
53801;SDS011;39709;53.334;6.534;2022-12-29T15:41:56;8.57;;;1.27;;
53801;SDS011;39709;53.334;6.534;2022-12-29T15:44:39;9.77;;;0.98;;
53801;SDS011;39709;53.334;6.534;2022-12-29T15:47:15;13.13;;;1.80;;
53801;SDS011;39709;53.334;6.534;2022-12-29T15:49:45;14.95;;;1.40;;
53801;SDS011;39709;53.334;6.534;2022-12-29T15:52:17;9.82;;;0.70;;
53801;SDS011;39709;53.334;6.534;2022-12-29T15:54:44;13.37;;;1.40;;
53801;SDS011;39709;53.334;6.534;2022-12-29T15:57:57;9.48;;;1.52;;
53801;SDS011;39709;53.334;6.534;2022-12-29T16:02:51;8.73;;;1.00;;
53801;SDS011;39709;53.334;6.534;2022-12-29T16:05:19;4.85;;;0.77;;
53801;SDS011;39709;53.334;6.534;2022-12-29T16:07:56;12.33;;;1.30;;
53801;SDS011;39709;53.334;6.534;2022-12-29T16:15:47;14.35;;;1.20;;
53801;SDS011;39709;53.334;6.534;2022-12-29T16:18:23;12.82;;;1.00;;
53801;SDS011;39709;53.334;6.534;2022-12-29T16:20:52;11.27;;;1.00;;
53801;SDS011;39709;53.334;6.534;2022-12-29T16:23:23;11.65;;;1.10;;
53801;SDS011;39709;53.334;6.534;2022-12-29T16:25:51;15.07;;;1.25;;
53801;SDS011;39709;53.334;6.534;2022-12-29T16:28:21;10.25;;;0.90;;
53801;SDS011;39709;53.334;6.534;2022-12-29T16:31:50;12.32;;;2.08;;
53801;SDS011;39709;53.334;6.534;2022-12-29T16:33:48;10.83;;;0.97;;
53801;SDS011;39709;53.334;6.534;2022-12-29T16:36:32;6.35;;;0.57;;
53801;SDS011;39709;53.334;6.534;2022-12-29T16:41:54;3.53;;;0.55;;
53801;SDS011;39709;53.334;6.534;2022-12-29T16:44:25;5.15;;;0.40;;
53801;SDS011;39709;53.334;6.534;2022-12-29T16:49:24;7.70;;;1.42;;
53801;SDS011;39709;53.334;6.534;2022-12-29T16:51:51;4.20;;;0.77;;
53801;SDS011;39709;53.334;6.534;2022-12-29T16:54:21;6.18;;;0.70;;
53801;SDS011;39709;53.334;6.534;2022-12-29T16:56:49;5.78;;;1.42;;
53801;SDS011;39709;53.334;6.534;2022-12-29T17:01:46;4.88;;;0.90;;
53801;SDS011;39709;53.334;6.534;2022-12-29T17:04:12;8.15;;;1.98;;
53801;SDS011;39709;53.334;6.534;2022-12-29T17:06:38;8.85;;;2.83;;
53801;SDS011;39709;53.334;6.534;2022-12-29T17:09:21;7.63;;;2.03;;
53801;SDS011;39709;53.334;6.534;2022-12-29T17:11:52;6.15;;;0.98;;
53801;SDS011;39709;53.334;6.534;2022-12-29T17:17:14;8.68;;;1.10;;
53801;SDS011;39709;53.334;6.534;2022-12-29T17:19:40;12.18;;;2.47;;
53801;SDS011;39709;53.334;6.534;2022-12-29T17:22:24;11.90;;;1.40;;
53801;SDS011;39709;53.334;6.534;2022-12-29T17:24:51;15.20;;;1.60;;
53801;SDS011;39709;53.334;6.534;2022-12-29T17:27:32;10.23;;;1.50;;
53801;SDS011;39709;53.334;6.534;2022-12-29T17:30:11;9.13;;;0.70;;
53801;SDS011;39709;53.334;6.534;2022-12-29T17:32:40;10.98;;;1.00;;
53801;SDS011;39709;53.334;6.534;2022-12-29T17:35:16;9.57;;;1.13;;
53801;SDS011;39709;53.334;6.534;2022-12-29T17:37:43;11.45;;;1.13;;
53801;SDS011;39709;53.334;6.534;2022-12-29T17:40:17;14.05;;;1.75;;
53801;SDS011;39709;53.334;6.534;2022-12-29T17:42:48;6.78;;;1.15;;
53801;SDS011;39709;53.334;6.534;2022-12-29T17:45:17;12.02;;;4.32;;
53801;SDS011;39709;53.334;6.534;2022-12-29T17:47:45;12.47;;;1.37;;